Time;durP1;ratioP1;P1;durP2;ratioP2;P2;SDS_P1;SDS_P2;PMS_P1;PMS_P2;Temp;Humidity;BMP_temperature;BMP_pressure;BME280_temperature;BME280_humidity;BME280_pressure;Samples;Min_cycle;Max_cycle;Signal;HPM_P1;HPM_P2
2022/07/30 00:01:51;;;;;;;;;;;;;;;18.64;50.45;100615.45;1674591;85;20250;-78
2022/07/30 00:04:17;;;;;;;;;;;;;;;18.61;50.50;100614.02;1675083;84;20180;-78
2022/07/30 00:06:43;;;;;;;;;;;;;;;18.60;50.58;100609.66;1659609;86;20170;-78
2022/07/30 00:09:09;;;;;;;;;;;;;;;18.58;50.64;100610.92;1656890;86;20252;-78
2022/07/30 00:11:35;;;;;;;;;;;;;;;18.57;50.70;100611.97;1657024;86;21180;-78
2022/07/30 00:14:01;;;;;;;;;;;;;;;18.53;50.74;100610.73;1659069;86;20851;-78
2022/07/30 00:16:27;;;;;;;;;;;;;;;18.49;50.77;100614.36;1676758;85;20220;-78
2022/07/30 00:18:53;;;;;;;;;;;;;;;18.46;50.81;100614.80;1675864;85;20189;-78
2022/07/30 00:21:18;;;;;;;;;;;;;;;18.41;50.83;100618.65;1672807;85;20242;-78
2022/07/30 00:23:44;;;;;;;;;;;;;;;18.31;50.89;100616.42;1671519;84;21188;-78
2022/07/30 00:26:10;;;;;;;;;;;;;;;18.22;50.97;100609.63;1639771;86;20216;-78
2022/07/30 00:28:36;;;;;;;;;;;;;;;18.15;51.03;100601.23;1675542;85;20232;-78
2022/07/30 00:31:02;;;;;;;;;;;;;;;18.09;51.11;100601.55;1676628;85;20232;-77
2022/07/30 00:33:28;;;;;;;;;;;;;;;18.02;51.21;100602.61;1676173;84;20249;-78
2022/07/30 00:35:54;;;;;;;;;;;;;;;17.94;51.25;100603.70;1675976;85;21172;-77
2022/07/30 00:38:20;;;;;;;;;;;;;;;17.88;51.34;100603.19;1676230;85;20283;-77
2022/07/30 00:40:46;;;;;;;;;;;;;;;17.83;51.41;100605.71;1674919;85;20200;-77
2022/07/30 00:43:16;;;;;;;;;;;;;;;17.78;51.50;100608.20;1671082;84;20177;-78
2022/07/30 00:45:43;;;;;;;;;;;;;;;17.72;51.56;100600.96;1670263;85;20152;-77
2022/07/30 00:48:10;;;;;;;;;;;;;;;17.68;51.64;100591.62;1665626;85;21161;-78
2022/07/30 00:50:36;;;;;;;;;;;;;;;17.61;51.73;100581.38;1631556;86;20190;-78
2022/07/30 00:53:02;;;;;;;;;;;;;;;17.55;51.81;100579.50;1669441;85;20519;-77
2022/07/30 00:55:29;;;;;;;;;;;;;;;17.51;51.91;100575.56;1654301;85;20166;-77
2022/07/30 00:57:55;;;;;;;;;;;;;;;17.46;51.98;100574.83;1671145;84;20186;-77
2022/07/30 01:00:21;;;;;;;;;;;;;;;17.41;52.08;100571.44;1670874;85;21175;-77
2022/07/30 01:02:47;;;;;;;;;;;;;;;17.40;52.16;100570.29;1667816;85;20176;-77
2022/07/30 01:05:13;;;;;;;;;;;;;;;17.35;52.22;100566.87;1666000;86;20256;-77
2022/07/30 01:07:39;;;;;;;;;;;;;;;17.34;52.28;100571.97;1665898;86;20201;-77
2022/07/30 01:10:06;;;;;;;;;;;;;;;17.33;52.36;100574.34;1666378;85;20232;-77
2022/07/30 01:12:32;;;;;;;;;;;;;;;17.29;52.45;100577.15;1666218;86;21289;-77
2022/07/30 01:14:59;;;;;;;;;;;;;;;17.27;52.52;100581.94;1664616;86;20259;-77
2022/07/30 01:17:25;;;;;;;;;;;;;;;17.25;52.57;100581.30;1666177;86;20474;-77
2022/07/30 01:19:54;;;;;;;;;;;;;;;17.23;52.67;100580.69;1665736;86;20232;-77
2022/07/30 01:22:30;;;;;;;;;;;;;;;17.20;52.70;100582.45;1666267;85;20169;-78
2022/07/30 01:25:28;;;;;;;;;;;;;;;17.19;52.78;100585.34;1665041;86;21260;-78
2022/07/30 01:27:58;;;;;;;;;;;;;;;17.15;52.83;100581.41;1668165;85;20466;-78
2022/07/30 01:30:25;;;;;;;;;;;;;;;17.11;52.91;100582.85;1655298;85;20154;-78
2022/07/30 01:32:52;;;;;;;;;;;;;;;17.07;52.96;100577.05;1665717;86;20170;-78
2022/07/30 01:35:18;;;;;;;;;;;;;;;17.05;53.05;100569.70;1665616;85;20170;-78
2022/07/30 01:37:44;;;;;;;;;;;;;;;17.02;53.13;100567.42;1666454;85;21643;-78
2022/07/30 01:40:11;;;;;;;;;;;;;;;16.99;53.23;100561.91;1666254;85;20294;-78
2022/07/30 01:42:37;;;;;;;;;;;;;;;17.00;53.35;100568.14;1647290;85;20196;-78
2022/07/30 01:45:03;;;;;;;;;;;;;;;16.96;53.46;100565.54;1688516;85;20922;-77
2022/07/30 01:47:29;;;;;;;;;;;;;;;16.98;53.56;100552.70;1689404;84;20174;-77
2022/07/30 01:49:55;;;;;;;;;;;;;;;16.99;53.64;100550.33;1689316;85;21054;-77
2022/07/30 01:52:21;;;;;;;;;;;;;;;17.00;53.73;100557.36;1688766;84;20250;-77
2022/07/30 01:54:49;;;;;;;;;;;;;;;17.01;53.81;100546.06;1689196;85;20207;-77
2022/07/30 01:57:15;;;;;;;;;;;;;;;16.98;53.88;100543.28;1675747;85;20469;-78
2022/07/30 01:59:42;;;;;;;;;;;;;;;16.96;53.96;100545.33;1650896;85;20150;-78
2022/07/30 02:02:08;;;;;;;;;;;;;;;16.94;54.04;100547.42;1676696;85;21095;-77
2022/07/30 02:04:34;;;;;;;;;;;;;;;16.94;54.08;100550.11;1676128;85;20515;-77
2022/07/30 02:07:11;;;;;;;;;;;;;;;16.93;54.15;100556.02;1673663;84;20216;-78
2022/07/30 02:09:40;;;;;;;;;;;;;;;16.90;54.19;100555.09;1633199;86;20194;-78
2022/07/30 02:14:57;;;;;;;;;;;;;;;16.84;54.29;100554.58;1638107;87;21192;-77
2022/07/30 02:17:25;;;;;;;;;;;;;;;16.82;54.35;100549.89;1674629;85;20194;-77
2022/07/30 02:19:53;;;;;;;;;;;;;;;16.79;54.39;100553.01;1675831;85;20155;-77
2022/07/30 02:22:19;;;;;;;;;;;;;;;16.78;54.44;100550.53;1674694;85;20489;-78
2022/07/30 02:24:45;;;;;;;;;;;;;;;16.79;54.51;100548.13;1676251;84;20165;-77
2022/07/30 02:27:16;;;;;;;;;;;;;;;16.77;54.58;100540.79;1676230;85;20996;-77
2022/07/30 02:29:43;;;;;;;;;;;;;;;16.76;54.65;100535.08;1675245;84;20205;-78
2022/07/30 02:32:09;;;;;;;;;;;;;;;16.76;54.74;100531.05;1676253;85;20149;-78
2022/07/30 02:34:37;;;;;;;;;;;;;;;16.79;54.82;100534.66;1674867;84;20214;-77
2022/07/30 02:37:03;;;;;;;;;;;;;;;16.79;54.93;100526.07;1676961;85;20213;-78
2022/07/30 02:39:29;;;;;;;;;;;;;;;16.83;55.02;100535.91;1672964;84;20994;-78
2022/07/30 02:41:55;;;;;;;;;;;;;;;16.85;55.11;100535.20;1675254;85;20497;-78
2022/07/30 02:44:21;;;;;;;;;;;;;;;16.87;55.23;100531.27;1662007;86;20259;-78
2022/07/30 02:46:47;;;;;;;;;;;;;;;16.89;55.31;100528.34;1663948;86;20183;-78
2022/07/30 02:49:13;;;;;;;;;;;;;;;16.93;55.38;100526.89;1656400;85;20216;-78
2022/07/30 02:51:39;;;;;;;;;;;;;;;16.97;55.43;100522.75;1657950;86;22645;-78
2022/07/30 02:54:05;;;;;;;;;;;;;;;16.99;55.49;100526.08;1656717;85;20175;-78
2022/07/30 02:56:31;;;;;;;;;;;;;;;17.00;55.54;100518.28;1659850;86;20223;-78
2022/07/30 02:58:57;;;;;;;;;;;;;;;17.03;55.62;100513.83;1654816;85;20456;-78
2022/07/30 03:01:23;;;;;;;;;;;;;;;17.05;55.67;100500.16;1616924;88;20189;-78
2022/07/30 03:03:48;;;;;;;;;;;;;;;17.05;55.73;100499.64;1650043;86;22033;-78
2022/07/30 03:06:14;;;;;;;;;;;;;;;17.05;55.80;100496.95;1672056;85;20319;-78
2022/07/30 03:08:41;;;;;;;;;;;;;;;17.06;55.85;100494.57;1671657;85;20208;-78
2022/07/30 03:11:07;;;;;;;;;;;;;;;17.07;55.85;100502.94;1659047;86;20185;-78
2022/07/30 03:13:33;;;;;;;;;;;;;;;17.08;55.89;100507.81;1659064;86;20169;-78
2022/07/30 03:15:59;;;;;;;;;;;;;;;17.10;55.90;100511.15;1655914;86;21297;-78
2022/07/30 03:18:27;;;;;;;;;;;;;;;17.09;55.90;100511.66;1659368;85;20799;-78
2022/07/30 03:20:54;;;;;;;;;;;;;;;17.09;55.91;100508.97;1656393;85;20610;-78
2022/07/30 03:23:20;;;;;;;;;;;;;;;17.10;55.92;100517.34;1631221;88;20966;-78
2022/07/30 03:25:48;;;;;;;;;;;;;;;17.10;55.91;100513.30;1656644;85;20243;-78
2022/07/30 03:28:14;;;;;;;;;;;;;;;17.09;55.95;100507.63;1616509;88;21053;-78
2022/07/30 03:30:40;;;;;;;;;;;;;;;17.09;55.96;100503.58;1650635;86;20228;-78
2022/07/30 03:33:06;;;;;;;;;;;;;;;17.08;55.99;100497.87;1674176;84;20291;-78
2022/07/30 03:35:31;;;;;;;;;;;;;;;17.09;55.99;100496.84;1673263;85;20236;-78
2022/07/30 03:37:57;;;;;;;;;;;;;;;17.09;55.99;100499.53;1671336;84;20176;-78
2022/07/30 03:40:23;;;;;;;;;;;;;;;17.11;56.02;100502.00;1673452;85;21862;-78
2022/07/30 03:42:49;;;;;;;;;;;;;;;17.13;56.03;100505.34;1673483;84;20247;-78
2022/07/30 03:45:15;;;;;;;;;;;;;;;17.15;56.07;100499.20;1673808;85;20271;-78
2022/07/30 03:47:42;;;;;;;;;;;;;;;17.14;56.11;100510.50;1672234;85;20525;-78
2022/07/30 03:50:11;;;;;;;;;;;;;;;17.14;56.12;100510.50;1658103;85;20192;-78
2022/07/30 03:52:39;;;;;;;;;;;;;;;17.14;56.15;100502.41;1659236;86;21241;-78
2022/07/30 03:55:06;;;;;;;;;;;;;;;17.15;56.17;100504.08;1653587;86;20485;-78
2022/07/30 03:57:32;;;;;;;;;;;;;;;17.17;56.21;100507.38;1617837;87;20214;-77
2022/07/30 03:59:58;;;;;;;;;;;;;;;17.17;56.22;100500.64;1645487;85;20169;-78
2022/07/30 04:02:24;;;;;;;;;;;;;;;17.18;56.23;100508.21;1673935;85;20169;-77
2022/07/30 04:04:50;;;;;;;;;;;;;;;17.19;56.25;100517.97;1672438;85;21211;-78
2022/07/30 04:07:16;;;;;;;;;;;;;;;17.20;56.29;100515.08;1657836;86;20263;-78
2022/07/30 04:09:42;;;;;;;;;;;;;;;17.22;56.35;100507.59;1656174;85;20207;-78
2022/07/30 04:12:08;;;;;;;;;;;;;;;17.24;56.36;100503.35;1650761;87;20501;-78
2022/07/30 04:14:39;;;;;;;;;;;;;;;17.25;56.36;100498.25;1671002;85;20198;-78
2022/07/30 04:17:07;;;;;;;;;;;;;;;17.26;56.37;100499.39;1670975;85;21023;-78
2022/07/30 04:19:48;;;;;;;;;;;;;;;17.29;56.40;100499.48;1670607;84;20155;-78
2022/07/30 04:22:15;;;;;;;;;;;;;;;17.29;56.44;100494.92;1658438;86;20227;-78
2022/07/30 04:24:41;;;;;;;;;;;;;;;17.33;56.43;100498.03;1657443;85;20469;-77
2022/07/30 04:27:07;;;;;;;;;;;;;;;17.34;56.43;100500.53;1655295;85;20515;-78
2022/07/30 04:29:32;;;;;;;;;;;;;;;17.38;56.45;100500.94;1658657;86;21108;-78
2022/07/30 04:31:58;;;;;;;;;;;;;;;17.39;56.45;100498.01;1619114;86;20239;-78
2022/07/30 04:34:24;;;;;;;;;;;;;;;17.42;56.45;100497.58;1654802;86;20186;-78
2022/07/30 04:36:50;;;;;;;;;;;;;;;17.45;56.46;100488.26;1643250;87;20159;-77
2022/07/30 04:39:16;;;;;;;;;;;;;;;17.49;56.44;100494.34;1640350;87;20850;-78
2022/07/30 04:41:42;;;;;;;;;;;;;;;17.54;56.45;100494.23;1643829;86;21072;-78
2022/07/30 04:44:08;;;;;;;;;;;;;;;17.59;56.44;100491.77;1625252;86;20205;-77
2022/07/30 04:46:34;;;;;;;;;;;;;;;17.63;56.47;100490.27;1650226;86;20227;-78
2022/07/30 04:48:59;;;;;;;;;;;;;;;17.67;56.47;100495.03;1674170;85;20457;-78
2022/07/30 04:51:27;;;;;;;;;;;;;;;17.72;56.46;100493.06;1672814;84;20190;-78
2022/07/30 04:53:53;;;;;;;;;;;;;;;17.76;56.43;100494.29;1667411;84;21138;-78
2022/07/30 04:56:19;;;;;;;;;;;;;;;17.79;56.42;100495.20;1632403;87;20345;-78
2022/07/30 04:58:45;;;;;;;;;;;;;;;17.83;56.41;100500.48;1672549;85;20560;-78
2022/07/30 05:01:13;;;;;;;;;;;;;;;17.84;56.39;100494.86;1674337;85;20212;-78
2022/07/30 05:03:39;;;;;;;;;;;;;;;17.87;56.36;100500.37;1657977;85;20218;-78
2022/07/30 05:06:05;;;;;;;;;;;;;;;17.87;56.33;100493.63;1674176;85;22018;-77
2022/07/30 05:08:31;;;;;;;;;;;;;;;17.85;56.28;100494.34;1672527;85;20212;-78
2022/07/30 05:10:57;;;;;;;;;;;;;;;17.88;56.26;100500.65;1671590;85;20200;-77
2022/07/30 05:13:23;;;;;;;;;;;;;;;17.86;56.20;100498.19;1668170;85;20182;-77
2022/07/30 05:15:49;;;;;;;;;;;;;;;17.84;56.17;100497.55;1671331;85;20164;-78
2022/07/30 05:18:14;;;;;;;;;;;;;;;17.84;56.18;100492.67;1671482;85;21747;-78
2022/07/30 05:20:40;;;;;;;;;;;;;;;17.83;56.15;100489.17;1670717;84;20228;-78
2022/07/30 05:23:07;;;;;;;;;;;;;;;17.85;56.16;100488.94;1671329;85;20267;-78
2022/07/30 05:25:33;;;;;;;;;;;;;;;17.87;56.16;100490.38;1666966;85;20194;-78
2022/07/30 05:27:59;;;;;;;;;;;;;;;17.91;56.12;100494.82;1671406;85;20190;-78
2022/07/30 05:30:25;;;;;;;;;;;;;;;17.93;56.11;100491.41;1671690;85;21163;-78
2022/07/30 05:32:51;;;;;;;;;;;;;;;17.94;56.09;100493.87;1670593;85;20252;-78
2022/07/30 05:35:17;;;;;;;;;;;;;;;17.99;56.08;100493.23;1671042;84;20266;-78
2022/07/30 05:37:43;;;;;;;;;;;;;;;18.01;56.05;100488.46;1667744;84;20156;-78
2022/07/30 05:40:10;;;;;;;;;;;;;;;18.06;56.06;100495.38;1632314;87;20718;-78
2022/07/30 05:42:36;;;;;;;;;;;;;;;18.11;55.99;100489.33;1652765;86;21156;-78
2022/07/30 05:45:01;;;;;;;;;;;;;;;18.12;55.99;100492.34;1646277;87;20226;-78
2022/07/30 05:47:27;;;;;;;;;;;;;;;18.11;55.96;100495.56;1645520;87;20198;-78
2022/07/30 05:49:53;;;;;;;;;;;;;;;18.12;55.94;100493.15;1641845;87;20455;-78
2022/07/30 05:52:19;;;;;;;;;;;;;;;18.15;55.96;100496.79;1642957;86;20179;-78
2022/07/30 05:54:45;;;;;;;;;;;;;;;18.15;55.90;100500.01;1644880;87;22648;-78
2022/07/30 05:57:11;;;;;;;;;;;;;;;18.12;55.90;100503.95;1666747;86;20288;-78
2022/07/30 05:59:37;;;;;;;;;;;;;;;18.10;55.90;100507.91;1667424;84;20320;-78
2022/07/30 06:02:03;;;;;;;;;;;;;;;18.08;55.94;100508.66;1664714;86;20186;-78
2022/07/30 06:04:29;;;;;;;;;;;;;;;18.06;55.99;100514.27;1652232;86;20218;-78
2022/07/30 06:06:55;;;;;;;;;;;;;;;18.05;56.00;100515.30;1644458;85;21139;-78
2022/07/30 06:09:21;;;;;;;;;;;;;;;18.02;56.03;100514.38;1653872;86;20190;-78
2022/07/30 06:11:46;;;;;;;;;;;;;;;18.01;56.07;100520.02;1646677;85;20305;-78
2022/07/30 06:14:12;;;;;;;;;;;;;;;17.98;56.13;100517.20;1645346;86;20187;-78
2022/07/30 06:16:38;;;;;;;;;;;;;;;17.96;56.17;100522.00;1642288;86;20262;-78
2022/07/30 06:19:04;;;;;;;;;;;;;;;17.93;56.22;100523.78;1645678;86;21200;-78
2022/07/30 06:21:30;;;;;;;;;;;;;;;17.89;56.25;100527.95;1645772;87;20457;-78
2022/07/30 06:23:56;;;;;;;;;;;;;;;17.83;56.38;100532.86;1659571;84;20170;-78
2022/07/30 06:26:22;;;;;;;;;;;;;;;17.76;56.48;100532.06;1667751;84;20148;-78
2022/07/30 06:28:48;;;;;;;;;;;;;;;17.65;56.64;100533.55;1660056;84;20257;-78
2022/07/30 06:31:14;;;;;;;;;;;;;;;17.57;56.81;100530.23;1652702;85;21042;-78
2022/07/30 06:33:40;;;;;;;;;;;;;;;17.47;57.00;100527.45;1652184;85;20159;-78
2022/07/30 06:36:06;;;;;;;;;;;;;;;17.36;57.18;100532.14;1652095;85;20305;-79
2022/07/30 06:38:32;;;;;;;;;;;;;;;17.26;57.42;100534.44;1652258;85;20547;-78
2022/07/30 06:40:58;;;;;;;;;;;;;;;17.20;57.62;100542.02;1649661;85;20262;-78
2022/07/30 06:43:24;;;;;;;;;;;;;;;17.15;57.84;100545.86;1649073;85;21290;-79
2022/07/30 06:45:50;;;;;;;;;;;;;;;17.11;57.99;100543.77;1660935;84;20194;-79
2022/07/30 06:48:16;;;;;;;;;;;;;;;17.03;58.18;100542.66;1661577;84;20198;-79
2022/07/30 06:50:41;;;;;;;;;;;;;;;16.96;58.40;100544.81;1669124;84;20210;-79
2022/07/30 06:53:07;;;;;;;;;;;;;;;16.87;58.64;100547.94;1670913;84;20199;-79
2022/07/30 06:55:33;;;;;;;;;;;;;;;16.81;58.90;100552.30;1668594;84;21201;-78
2022/07/30 06:57:59;;;;;;;;;;;;;;;16.77;59.14;100550.22;1632827;86;20214;-79
2022/07/30 07:00:25;;;;;;;;;;;;;;;16.75;59.34;100553.61;1667943;85;20182;-79
2022/07/30 07:02:51;;;;;;;;;;;;;;;16.75;59.53;100555.80;1663380;85;20310;-78
2022/07/30 07:05:17;;;;;;;;;;;;;;;16.74;59.69;100560.89;1668316;85;21165;-78
2022/07/30 07:07:43;;;;;;;;;;;;;;;16.76;59.87;100566.05;1671706;85;21158;-78
2022/07/30 07:10:09;;;;;;;;;;;;;;;16.79;60.03;100566.47;1671009;85;20194;-79
2022/07/30 07:12:35;;;;;;;;;;;;;;;16.81;60.24;100563.59;1669296;84;20326;-79
2022/07/30 07:15:01;;;;;;;;;;;;;;;16.81;60.43;100570.32;1667142;84;20343;-79
2022/07/30 07:17:27;;;;;;;;;;;;;;;16.81;60.65;100569.81;1670552;85;20255;-80
2022/07/30 07:19:53;;;;;;;;;;;;;;;16.82;60.81;100570.61;1671302;85;21981;-80
2022/07/30 07:22:19;;;;;;;;;;;;;;;16.86;61.02;100557.88;1670631;84;20226;-80
2022/07/30 07:24:45;;;;;;;;;;;;;;;16.81;61.14;100556.85;1670518;84;20205;-81
2022/07/30 07:27:10;;;;;;;;;;;;;;;16.75;61.34;100559.84;1664691;85;20414;-80
2022/07/30 07:29:36;;;;;;;;;;;;;;;16.68;61.50;100559.00;1662374;85;20191;-80
2022/07/30 07:32:02;;;;;;;;;;;;;;;16.61;61.71;100557.33;1669402;85;21185;-80
2022/07/30 07:34:28;;;;;;;;;;;;;;;16.59;61.90;100556.72;1663467;84;20282;-81
2022/07/30 07:36:54;;;;;;;;;;;;;;;16.54;62.08;100548.41;1665437;85;20247;-81
2022/07/30 07:39:20;;;;;;;;;;;;;;;16.50;62.29;100543.41;1667280;85;20210;-81
2022/07/30 07:41:46;;;;;;;;;;;;;;;16.52;62.45;100545.91;1670459;85;20186;-81
2022/07/30 07:44:12;;;;;;;;;;;;;;;16.50;62.58;100547.99;1655808;85;21156;-81
2022/07/30 07:46:37;;;;;;;;;;;;;;;16.47;62.76;100541.64;1667940;84;20192;-81
2022/07/30 07:49:03;;;;;;;;;;;;;;;16.50;62.93;100544.75;1670813;84;20377;-81
2022/07/30 07:51:29;;;;;;;;;;;;;;;16.52;63.06;100542.38;1661481;84;20232;-80
2022/07/30 07:53:55;;;;;;;;;;;;;;;16.54;63.25;100548.41;1665368;84;20484;-79
2022/07/30 07:56:21;;;;;;;;;;;;;;;16.52;63.39;100542.38;1672885;84;21820;-79
2022/07/30 07:58:47;;;;;;;;;;;;;;;16.52;63.56;100544.56;1680514;83;20235;-79
2022/07/30 08:01:13;;;;;;;;;;;;;;;16.50;63.74;100542.06;1682945;83;20173;-79
2022/07/30 08:03:39;;;;;;;;;;;;;;;16.47;63.88;100540.30;1680821;83;20267;-79
2022/07/30 08:06:05;;;;;;;;;;;;;;;16.47;64.07;100540.30;1679453;83;20184;-79
2022/07/30 08:08:31;;;;;;;;;;;;;;;16.43;64.26;100530.45;1669588;84;21693;-79
2022/07/30 08:10:56;;;;;;;;;;;;;;;16.42;64.44;100532.02;1663690;84;20788;-79
2022/07/30 08:13:22;;;;;;;;;;;;;;;16.42;64.65;100532.86;1665302;84;20260;-80
2022/07/30 08:15:49;;;;;;;;;;;;;;;16.43;64.81;100535.03;1667759;84;21132;-80
2022/07/30 08:18:15;;;;;;;;;;;;;;;16.42;64.98;100532.86;1670517;84;20219;-79
2022/07/30 08:20:40;;;;;;;;;;;;;;;16.41;65.17;100529.84;1668069;84;21911;-78
2022/07/30 08:23:07;;;;;;;;;;;;;;;16.35;65.36;100529.32;1670737;84;20252;-79
2022/07/30 08:25:33;;;;;;;;;;;;;;;16.31;65.57;100525.37;1667597;84;20762;-79
2022/07/30 08:28:01;;;;;;;;;;;;;;;16.29;65.79;100530.11;1656686;84;20731;-79
2022/07/30 08:30:26;;;;;;;;;;;;;;;16.33;66.03;100530.02;1667882;84;20522;-78
2022/07/30 08:32:52;;;;;;;;;;;;;;;16.38;66.20;100528.91;1660770;84;21178;-79
2022/07/30 08:35:18;;;;;;;;;;;;;;;16.45;66.36;100531.09;1660255;84;20196;-78
2022/07/30 08:37:44;;;;;;;;;;;;;;;16.47;66.50;100530.36;1666984;84;20220;-78
2022/07/30 08:40:11;;;;;;;;;;;;;;;16.52;66.68;100523.53;1666371;84;20414;-78
2022/07/30 08:42:37;;;;;;;;;;;;;;;16.56;66.82;100523.48;1654486;84;20172;-79
2022/07/30 08:45:03;;;;;;;;;;;;;;;16.62;66.93;100523.98;1662707;84;22201;-79
2022/07/30 08:47:31;;;;;;;;;;;;;;;16.69;67.05;100518.09;1626134;86;20218;-79
2022/07/30 08:50:00;;;;;;;;;;;;;;;16.71;67.12;100528.95;1654828;84;20718;-79
2022/07/30 08:52:24;;;;;;;;;;;;;;;16.76;67.21;100522.96;1662911;84;20172;-79
2022/07/30 08:54:50;;;;;;;;;;;;;;;16.77;67.34;100521.94;1661223;84;20157;-78
2022/07/30 08:57:16;;;;;;;;;;;;;;;16.77;67.42;100520.08;1676374;84;21834;-79
2022/07/30 08:59:42;;;;;;;;;;;;;;;16.77;67.55;100519.24;1667630;84;20252;-78
2022/07/30 09:02:08;;;;;;;;;;;;;;;16.85;67.72;100520.39;1667018;84;20196;-80
2022/07/30 09:04:34;;;;;;;;;;;;;;;16.89;67.85;100522.95;1667877;84;20213;-79
2022/07/30 09:07:00;;;;;;;;;;;;;;;16.91;67.93;100519.03;1667151;84;20196;-79
2022/07/30 09:09:26;;;;;;;;;;;;;;;16.89;68.07;100527.00;1662719;84;21118;-79
2022/07/30 09:11:52;;;;;;;;;;;;;;;16.86;68.16;100524.72;1662320;84;20991;-80
2022/07/30 09:14:18;;;;;;;;;;;;;;;16.83;68.29;100526.48;1666589;84;20208;-80
2022/07/30 09:16:44;;;;;;;;;;;;;;;16.77;68.39;100519.24;1667359;84;20200;-79
2022/07/30 09:19:16;;;;;;;;;;;;;;;16.76;68.53;100521.10;1664191;84;20166;-79
2022/07/30 09:21:44;;;;;;;;;;;;;;;16.76;68.65;100514.87;1667278;84;21124;-79
2022/07/30 09:24:10;;;;;;;;;;;;;;;16.72;68.80;100521.72;1652477;84;20471;-80
2022/07/30 09:26:51;;;;;;;;;;;;;;;16.69;68.96;100516.74;1653012;85;20203;-79
2022/07/30 09:29:18;;;;;;;;;;;;;;;16.68;69.15;100515.08;1664020;84;20192;-80
2022/07/30 09:32:04;;;;;;;;;;;;;;;16.71;69.30;100513.34;1633599;86;20740;-79
2022/07/30 09:34:34;;;;;;;;;;;;;;;16.73;69.45;100512.09;1659845;84;21838;-79
2022/07/30 09:37:02;;;;;;;;;;;;;;;16.71;69.64;100509.30;1652760;85;20244;-79
2022/07/30 09:39:30;;;;;;;;;;;;;;;16.78;69.79;100503.41;1648778;84;20198;-79
2022/07/30 09:41:57;;;;;;;;;;;;;;;16.84;69.95;100509.30;1661161;83;20204;-79
2022/07/30 09:44:24;;;;;;;;;;;;;;;16.93;70.10;100514.77;1665705;84;20510;-79
2022/07/30 09:46:50;;;;;;;;;;;;;;;16.96;70.20;100516.53;1672098;83;21162;-79
2022/07/30 09:49:17;;;;;;;;;;;;;;;16.95;70.29;100520.28;1666908;84;20174;-79
2022/07/30 09:51:43;;;;;;;;;;;;;;;16.95;70.46;100522.14;1669897;84;20182;-79
2022/07/30 09:54:09;;;;;;;;;;;;;;;16.97;70.59;100523.58;1669426;84;20160;-79
2022/07/30 09:56:35;;;;;;;;;;;;;;;17.02;70.65;100525.66;1658905;85;20254;-79
2022/07/30 09:59:01;;;;;;;;;;;;;;;17.07;70.75;100527.20;1647950;85;21165;-79
2022/07/30 10:01:27;;;;;;;;;;;;;;;17.11;70.84;100530.30;1647042;85;20240;-79
2022/07/30 10:03:53;;;;;;;;;;;;;;;17.12;70.92;100528.76;1662639;83;20199;-78
2022/07/30 10:06:33;;;;;;;;;;;;;;;17.16;71.02;100530.00;1675847;83;20179;-79
2022/07/30 10:08:59;;;;;;;;;;;;;;;17.24;71.10;100527.06;1664519;84;20182;-79
2022/07/30 10:11:25;;;;;;;;;;;;;;;17.36;71.20;100529.95;1668099;84;21618;-79
2022/07/30 10:13:53;;;;;;;;;;;;;;;17.42;71.30;100531.28;1670024;84;20157;-75
2022/07/30 10:16:19;;;;;;;;;;;;;;;17.46;71.37;100530.34;1670535;84;20411;-72
2022/07/30 10:18:45;;;;;;;;;;;;;;;17.48;71.45;100538.55;1665463;84;20371;-81
2022/07/30 10:21:11;;;;;;;;;;;;;;;17.49;71.48;100543.39;1668855;84;20204;-82
2022/07/30 10:23:38;;;;;;;;;;;;;;;17.49;71.55;100536.14;1669303;84;21143;-81
2022/07/30 10:26:04;;;;;;;;;;;;;;;17.51;71.63;100540.50;1623493;85;20159;-80
2022/07/30 10:28:30;;;;;;;;;;;;;;;17.51;71.71;100543.20;1636377;85;20318;-81
2022/07/30 10:30:57;;;;;;;;;;;;;;;17.49;71.74;100538.00;1667985;84;20255;-80
2022/07/30 10:33:28;;;;;;;;;;;;;;;17.53;71.87;100539.76;1671665;84;20180;-80
2022/07/30 10:35:55;;;;;;;;;;;;;;;17.54;71.95;100534.69;1627017;87;21126;-81
2022/07/30 10:38:23;;;;;;;;;;;;;;;17.58;72.05;100544.05;1662399;85;20233;-80
2022/07/30 10:41:12;;;;;;;;;;;;;;;17.58;72.08;100539.48;1666039;85;20225;-80
2022/07/30 10:44:16;;;;;;;;;;;;;;;17.59;72.15;100543.02;1668929;85;20186;-80
2022/07/30 10:46:46;;;;;;;;;;;;;;;17.59;72.23;100538.42;1669889;85;20201;-80
2022/07/30 10:49:14;;;;;;;;;;;;;;;17.55;72.33;100541.74;1669089;84;21170;-81
2022/07/30 10:51:47;;;;;;;;;;;;;;;17.53;72.44;100538.41;1668545;85;20490;-80
2022/07/30 10:54:35;;;;;;;;;;;;;;;17.52;72.51;100535.42;1668151;85;20202;-80
2022/07/30 10:57:13;;;;;;;;;;;;;;;17.48;72.59;100531.81;1663286;84;20514;-80
2022/07/30 10:59:57;;;;;;;;;;;;;;;17.47;72.71;100532.00;1638253;87;20209;-80
2022/07/30 11:02:24;;;;;;;;;;;;;;;17.43;72.83;100528.91;1659708;84;21727;-80
2022/07/30 11:05:10;;;;;;;;;;;;;;;17.34;73.02;100536.09;1661074;85;20472;-80
2022/07/30 11:07:36;;;;;;;;;;;;;;;17.27;73.14;100532.06;1662320;84;20170;-79
2022/07/30 11:10:03;;;;;;;;;;;;;;;17.20;73.26;100532.59;1669351;84;20699;-79
2022/07/30 11:12:46;;;;;;;;;;;;;;;17.15;73.42;100516.20;1672738;85;20183;-78
2022/07/30 11:15:12;;;;;;;;;;;;;;;17.11;73.52;100512.78;1671586;84;21190;-78
2022/07/30 11:18:01;;;;;;;;;;;;;;;17.04;73.70;100516.84;1669519;84;20702;-78
2022/07/30 11:20:32;;;;;;;;;;;;;;;17.01;73.85;100521.81;1672572;84;20492;-78
2022/07/30 11:23:25;;;;;;;;;;;;;;;16.98;74.03;100524.42;1671284;84;20234;-78
2022/07/30 11:25:51;;;;;;;;;;;;;;;17.00;74.14;100523.67;1670835;85;20161;-78
2022/07/30 11:28:42;;;;;;;;;;;;;;;17.05;74.25;100529.28;1668830;85;21234;-79
2022/07/30 11:31:34;;;;;;;;;;;;;;;17.08;74.33;100528.86;1672218;85;20154;-79
2022/07/30 11:34:24;;;;;;;;;;;;;;;17.08;74.42;100522.64;1666414;84;20281;-79
2022/07/30 11:37:07;;;;;;;;;;;;;;;17.08;74.51;100522.13;1676727;84;20160;-79
2022/07/30 11:39:56;;;;;;;;;;;;;;;17.09;74.61;100522.44;1667928;84;20185;-78
2022/07/30 11:42:26;;;;;;;;;;;;;;;17.10;74.68;100517.34;1669107;84;21772;-78
2022/07/30 11:44:52;;;;;;;;;;;;;;;17.12;74.76;100519.33;1654118;84;20165;-79
2022/07/30 11:47:18;;;;;;;;;;;;;;;17.10;74.82;100518.69;1612468;87;20262;-78
2022/07/30 11:49:47;;;;;;;;;;;;;;;17.12;74.90;100517.14;1615892;87;20593;-78
2022/07/30 11:52:17;;;;;;;;;;;;;;;17.10;74.95;100524.08;1614962;86;20180;-78
2022/07/30 11:54:53;;;;;;;;;;;;;;;17.06;75.02;100522.03;1569827;89;21071;-77
2022/07/30 11:57:19;;;;;;;;;;;;;;;17.03;75.15;100526.50;1570894;90;20264;-78
2022/07/30 11:59:53;;;;;;;;;;;;;;;17.02;75.27;100522.97;1574627;90;20226;-77
2022/07/30 12:02:27;;;;;;;;;;;;;;;16.98;75.30;100520.38;1619738;87;20219;-78
2022/07/30 12:04:53;;;;;;;;;;;;;;;16.97;75.36;100518.71;1607934;89;20673;-77
2022/07/30 12:07:22;;;;;;;;;;;;;;;17.02;75.46;100519.44;1587329;89;21255;-78
2022/07/30 12:09:48;;;;;;;;;;;;;;;17.05;75.50;100527.94;1588973;88;20172;-77
2022/07/30 12:12:23;;;;;;;;;;;;;;;17.09;75.56;100530.53;1584573;89;20216;-77
2022/07/30 12:14:49;;;;;;;;;;;;;;;17.11;75.61;100521.70;1603706;88;20149;-77
2022/07/30 12:17:14;;;;;;;;;;;;;;;17.12;75.64;100525.23;1602723;88;20205;-78
2022/07/30 12:19:46;;;;;;;;;;;;;;;17.12;75.67;100526.06;1582843;88;20738;-79
2022/07/30 12:22:12;;;;;;;;;;;;;;;17.14;75.69;100529.36;1607246;88;20192;-71
2022/07/30 12:24:38;;;;;;;;;;;;;;;17.15;75.76;100526.16;1606051;88;20260;-71
2022/07/30 12:27:05;;;;;;;;;;;;;;;17.15;75.79;100525.64;1598041;89;20230;-71
2022/07/30 12:29:32;;;;;;;;;;;;;;;17.15;75.80;100522.94;1612922;88;20180;-71
2022/07/30 12:31:58;;;;;;;;;;;;;;;17.18;75.87;100522.52;1619904;88;21154;-71
2022/07/30 12:34:24;;;;;;;;;;;;;;;17.22;75.93;100516.19;1622710;88;20246;-71
2022/07/30 12:36:50;;;;;;;;;;;;;;;17.23;75.94;100511.95;1601428;89;20194;-71
2022/07/30 12:39:22;;;;;;;;;;;;;;;17.27;76.02;100511.84;1608133;89;20180;-70
2022/07/30 12:41:50;;;;;;;;;;;;;;;17.27;76.05;100517.23;1608246;89;20517;-70